Time;durP1;ratioP1;P1;durP2;ratioP2;P2;SDS_P1;SDS_P2;PMS_P1;PMS_P2;Temp;Humidity;BMP_temperature;BMP_pressure;BME280_temperature;BME280_humidity;BME280_pressure;Samples;Min_cycle;Max_cycle;Signal;HPM_P1;HPM_P2
2023/07/20 00:02:24;;;;;;;68.10;8.60;;;;;;;-140.66;100.00;55571.53;5117238;28;20363;-74
2023/07/20 00:05:09;;;;;;;31.65;6.35;;;;;;;-140.66;100.00;55571.53;5116686;28;20019;-74
2023/07/20 00:07:56;;;;;;;27.30;6.85;;;;;;;-140.66;100.00;55571.53;5115622;28;20028;-73
2023/07/20 00:10:42;;;;;;;37.47;6.53;;;;;;;-140.66;100.00;55571.53;5116403;28;20035;-73
2023/07/20 00:13:28;;;;;;;28.17;6.65;;;;;;;-140.66;100.00;55571.53;5116415;28;20093;-73
2023/07/20 00:16:14;;;;;;;23.90;5.90;;;;;;;-140.66;100.00;55571.53;5117569;28;20023;-72
2023/07/20 00:18:59;;;;;;;30.58;6.22;;;;;;;-140.66;100.00;55571.53;5102412;28;20031;-73
2023/07/20 00:21:45;;;;;;;20.17;6.40;;;;;;;-140.66;100.00;55571.53;5116050;28;20488;-73
2023/07/20 00:24:32;;;;;;;26.10;6.50;;;;;;;-140.66;100.00;55571.53;5116905;28;20028;-73
2023/07/20 00:27:18;;;;;;;26.30;7.93;;;;;;;-140.66;100.00;55571.53;5117516;28;20031;-73
2023/07/20 00:30:04;;;;;;;26.30;8.27;;;;;;;-140.66;100.00;55571.53;5116617;28;20027;-73
2023/07/20 00:32:50;;;;;;;20.52;8.30;;;;;;;-140.66;100.00;55571.53;5117722;28;20016;-74
2023/07/20 00:35:36;;;;;;;16.00;7.88;;;;;;;-140.66;100.00;55571.53;5116576;28;20019;-72
2023/07/20 00:38:22;;;;;;;16.73;7.63;;;;;;;-140.66;100.00;55571.53;5116914;28;20190;-72
2023/07/20 00:41:07;;;;;;;16.73;7.40;;;;;;;-140.66;100.00;55571.53;5116528;28;20088;-73
2023/07/20 00:43:53;;;;;;;17.90;7.80;;;;;;;-140.66;100.00;55571.53;5115965;28;20028;-72
2023/07/20 00:46:41;;;;;;;12.85;7.45;;;;;;;-140.66;100.00;55571.53;5116475;28;20378;-73
2023/07/20 00:49:27;;;;;;;18.15;7.88;;;;;;;-140.66;100.00;55571.53;5115936;28;20462;-72
2023/07/20 00:52:14;;;;;;;17.25;7.13;;;;;;;-140.66;100.00;55571.53;5115747;28;20089;-73
2023/07/20 00:55:01;;;;;;;17.15;6.68;;;;;;;-140.66;100.00;55571.53;5117806;28;20474;-73
2023/07/20 00:57:47;;;;;;;18.00;6.97;;;;;;;-140.66;100.00;55571.53;5137053;28;20025;-75
2023/07/20 01:00:33;;;;;;;12.85;6.30;;;;;;;-140.66;100.00;55571.53;5116086;28;20034;-73
2023/07/20 01:03:18;;;;;;;12.65;5.57;;;;;;;-140.66;100.00;55571.53;5115648;28;20023;-73
2023/07/20 01:06:40;;;;;;;14.32;5.90;;;;;;;-140.66;100.00;55571.53;5101613;28;20070;-72
2023/07/20 01:09:36;;;;;;;11.32;4.80;;;;;;;-140.66;100.00;55571.53;5083195;28;20035;-72
2023/07/20 01:12:40;;;;;;;14.43;5.35;;;;;;;-140.66;100.00;55571.53;5102378;28;20080;-73
2023/07/20 01:15:26;;;;;;;15.38;5.38;;;;;;;-140.66;100.00;55571.53;5128051;28;20027;-73
2023/07/20 01:18:12;;;;;;;14.43;4.72;;;;;;;-140.66;100.00;55571.53;5123756;28;20099;-74
2023/07/20 01:21:10;;;;;;;12.48;4.63;;;;;;;-140.66;100.00;55571.53;5100908;28;20176;-72
2023/07/20 01:23:55;;;;;;;17.27;5.00;;;;;;;-140.66;100.00;55571.53;5115920;28;20081;-73
2023/07/20 01:27:06;;;;;;;17.88;4.80;;;;;;;-140.66;100.00;55571.53;5100401;28;20020;-73
2023/07/20 01:30:13;;;;;;;13.70;4.55;;;;;;;-140.66;100.00;55571.53;5115331;28;20022;-73
2023/07/20 01:33:01;;;;;;;14.48;4.60;;;;;;;-140.66;100.00;55571.53;5100624;28;20509;-73
2023/07/20 01:35:54;;;;;;;12.65;5.45;;;;;;;-140.66;100.00;55571.53;5115060;28;20477;-73
2023/07/20 01:38:40;;;;;;;8.73;4.68;;;;;;;-140.66;100.00;55571.53;5114915;28;20036;-73
2023/07/20 01:41:26;;;;;;;14.23;4.68;;;;;;;-140.66;100.00;55571.53;5114629;28;20063;-73
2023/07/20 01:44:13;;;;;;;8.68;4.50;;;;;;;-140.66;100.00;55571.53;5114006;28;20455;-74
2023/07/20 01:46:58;;;;;;;12.50;4.45;;;;;;;-140.66;100.00;55571.53;5115434;28;20030;-74
2023/07/20 01:49:44;;;;;;;13.60;3.97;;;;;;;-140.66;100.00;55571.53;5101782;28;20436;-73
2023/07/20 01:52:30;;;;;;;15.00;4.30;;;;;;;-140.66;100.00;55571.53;5114975;28;20406;-73
2023/07/20 01:55:16;;;;;;;17.10;5.00;;;;;;;-140.66;100.00;55571.53;5114817;28;20106;-73
2023/07/20 01:58:03;;;;;;;14.02;4.50;;;;;;;-140.66;100.00;55571.53;5115522;28;20024;-73
2023/07/20 02:00:49;;;;;;;15.65;4.22;;;;;;;-140.66;100.00;55571.53;5098953;28;20027;-73
2023/07/20 02:03:35;;;;;;;13.80;4.50;;;;;;;-140.66;100.00;55571.53;5114557;28;20038;-73
2023/07/20 02:06:21;;;;;;;14.93;4.78;;;;;;;-140.66;100.00;55571.53;5114319;28;20031;-73
2023/07/20 02:09:06;;;;;;;11.85;5.05;;;;;;;-140.66;100.00;55571.53;5115990;28;20019;-72
2023/07/20 02:11:52;;;;;;;11.25;5.47;;;;;;;-140.66;100.00;55571.53;5114119;28;20024;-73
2023/07/20 02:14:38;;;;;;;16.95;4.63;;;;;;;-140.66;100.00;55571.53;5114173;28;20077;-73
2023/07/20 02:17:24;;;;;;;19.42;5.07;;;;;;;-140.66;100.00;55571.53;5114554;28;20020;-72
2023/07/20 02:20:10;;;;;;;9.20;4.50;;;;;;;-140.66;100.00;55571.53;5114614;28;20051;-72
2023/07/20 02:22:56;;;;;;;12.93;4.65;;;;;;;-140.66;100.00;55571.53;5113818;28;20057;-72
2023/07/20 02:25:42;;;;;;;10.77;3.92;;;;;;;-140.66;100.00;55571.53;5115740;28;20023;-73
2023/07/20 02:28:28;;;;;;;10.60;3.90;;;;;;;-140.66;100.00;55571.53;5115657;28;20020;-73
2023/07/20 02:31:14;;;;;;;9.40;3.80;;;;;;;-140.66;100.00;55571.53;5114382;28;20034;-72
2023/07/20 02:34:00;;;;;;;10.45;3.75;;;;;;;-140.66;100.00;55571.53;5113330;28;20120;-72
2023/07/20 02:36:46;;;;;;;7.05;3.70;;;;;;;-140.66;100.00;55571.53;5114805;28;20020;-73
2023/07/20 02:39:31;;;;;;;11.77;4.18;;;;;;;-140.66;100.00;55571.53;5114133;28;20027;-73
2023/07/20 02:42:17;;;;;;;6.35;3.78;;;;;;;-140.66;100.00;55571.53;5113934;28;20459;-72
2023/07/20 02:45:04;;;;;;;9.60;3.33;;;;;;;-140.66;100.00;55571.53;5114897;28;20035;-73
2023/07/20 02:47:49;;;;;;;12.25;3.63;;;;;;;-140.66;100.00;55571.53;5115246;28;20440;-74
2023/07/20 02:50:36;;;;;;;8.45;3.63;;;;;;;-140.66;100.00;55571.53;5099632;28;20409;-73
2023/07/20 02:53:22;;;;;;;7.78;3.10;;;;;;;-140.66;100.00;55571.53;5115070;28;20035;-73
2023/07/20 02:56:07;;;;;;;7.82;3.47;;;;;;;-140.66;100.00;55571.53;5114557;28;20036;-73
2023/07/20 02:58:53;;;;;;;9.40;3.50;;;;;;;-140.66;100.00;55571.53;5113872;28;20020;-72
2023/07/20 03:01:39;;;;;;;10.65;3.70;;;;;;;-140.66;100.00;55571.53;5098275;28;20354;-73
2023/07/20 03:04:28;;;;;;;14.02;3.92;;;;;;;-140.66;100.00;55571.53;5114249;28;20027;-72
2023/07/20 03:07:13;;;;;;;12.60;4.03;;;;;;;-140.66;100.00;55571.53;5114624;28;20019;-73
2023/07/20 03:09:59;;;;;;;9.13;3.45;;;;;;;-140.66;100.00;55571.53;5113829;28;20028;-72
2023/07/20 03:12:45;;;;;;;13.73;3.80;;;;;;;-140.66;100.00;55571.53;5103144;28;20024;-73
2023/07/20 03:15:31;;;;;;;7.82;3.60;;;;;;;-140.66;100.00;55571.53;5117643;28;20363;-73
2023/07/20 03:18:16;;;;;;;9.32;3.58;;;;;;;-140.66;100.00;55571.53;5118257;28;20043;-72
2023/07/20 03:21:02;;;;;;;8.77;3.67;;;;;;;-140.66;100.00;55571.53;5117878;28;20055;-73
2023/07/20 03:23:48;;;;;;;7.13;3.70;;;;;;;-140.66;100.00;55571.53;5103617;28;20062;-72
2023/07/20 03:26:34;;;;;;;12.00;3.90;;;;;;;-140.66;100.00;55571.53;5118774;28;20019;-73
2023/07/20 03:29:20;;;;;;;9.32;3.72;;;;;;;-140.66;100.00;55571.53;5117418;28;20035;-72
2023/07/20 03:32:06;;;;;;;9.80;3.45;;;;;;;-140.66;100.00;55571.53;5117057;28;20366;-72
2023/07/20 03:34:52;;;;;;;12.30;3.92;;;;;;;-140.66;100.00;55571.53;5117321;28;20466;-73
2023/07/20 03:37:38;;;;;;;9.25;3.72;;;;;;;-140.66;100.00;55571.53;5117592;28;20466;-73
2023/07/20 03:40:24;;;;;;;7.53;3.38;;;;;;;-140.66;100.00;55571.53;5117651;28;20093;-73
2023/07/20 03:43:09;;;;;;;9.43;3.40;;;;;;;-140.66;100.00;55571.53;5117076;28;20448;-73
2023/07/20 03:45:56;;;;;;;7.57;2.95;;;;;;;-140.66;100.00;55571.53;5116981;28;20122;-73
2023/07/20 03:48:42;;;;;;;8.82;3.15;;;;;;;-140.66;100.00;55571.53;5117678;28;20066;-73
2023/07/20 03:51:28;;;;;;;5.57;3.40;;;;;;;-140.66;100.00;55571.53;5118073;28;20032;-73
2023/07/20 03:54:13;;;;;;;10.23;3.10;;;;;;;-140.66;100.00;55571.53;5117001;28;20467;-73
2023/07/20 03:57:00;;;;;;;7.78;3.22;;;;;;;-140.66;100.00;55571.53;5117848;28;20023;-74
2023/07/20 03:59:46;;;;;;;12.85;3.30;;;;;;;-140.66;100.00;55571.53;5116861;28;20439;-73
2023/07/20 04:02:32;;;;;;;7.47;3.20;;;;;;;-140.66;100.00;55571.53;5116875;28;20038;-73
2023/07/20 04:05:18;;;;;;;7.40;2.85;;;;;;;-140.66;100.00;55571.53;5088673;28;20493;-73
2023/07/20 04:08:04;;;;;;;11.90;3.45;;;;;;;-140.66;100.00;55571.53;5117785;28;20032;-72
2023/07/20 04:10:50;;;;;;;9.57;3.67;;;;;;;-140.66;100.00;55571.53;5117071;28;20051;-74
2023/07/20 04:13:35;;;;;;;8.32;3.20;;;;;;;-140.66;100.00;55571.53;5116618;28;20055;-73
2023/07/20 04:16:21;;;;;;;6.88;3.20;;;;;;;-140.66;100.00;55571.53;5117516;28;20038;-73
2023/07/20 04:19:08;;;;;;;9.75;3.53;;;;;;;-140.66;100.00;55571.53;5116928;28;20042;-73
2023/07/20 04:21:54;;;;;;;8.73;3.20;;;;;;;-140.66;100.00;55571.53;5116394;28;20048;-72
2023/07/20 04:24:39;;;;;;;6.35;2.97;;;;;;;-140.66;100.00;55571.53;5117139;28;20418;-73
2023/07/20 04:27:26;;;;;;;10.65;3.50;;;;;;;-140.66;100.00;55571.53;5116703;28;20402;-73
2023/07/20 04:30:12;;;;;;;8.80;3.63;;;;;;;-140.66;100.00;55571.53;5101139;28;20020;-73
2023/07/20 04:32:58;;;;;;;9.43;3.25;;;;;;;-140.66;100.00;55571.53;5102093;28;20384;-73
2023/07/20 04:35:54;;;;;;;9.32;3.28;;;;;;;-140.66;100.00;55571.53;5116741;28;20550;-74
2023/07/20 04:38:40;;;;;;;9.40;4.05;;;;;;;-140.66;100.00;55571.53;5115889;28;20083;-73
2023/07/20 04:41:26;;;;;;;11.02;4.00;;;;;;;-140.66;100.00;55571.53;5116076;28;20379;-74
2023/07/20 04:44:13;;;;;;;8.75;3.63;;;;;;;-140.66;100.00;55571.53;5101906;28;20102;-74
2023/07/20 04:46:59;;;;;;;8.30;3.78;;;;;;;-140.66;100.00;55571.53;5117177;28;20034;-73
2023/07/20 04:49:45;;;;;;;10.85;3.67;;;;;;;-140.66;100.00;55571.53;5115802;28;20027;-75
2023/07/20 04:52:30;;;;;;;7.65;3.35;;;;;;;-140.66;100.00;55571.53;5116011;28;20031;-72
2023/07/20 04:55:16;;;;;;;10.48;3.60;;;;;;;-140.66;100.00;55571.53;5116454;28;20355;-73
2023/07/20 04:58:03;;;;;;;7.22;3.55;;;;;;;-140.66;100.00;55571.53;5116028;28;20028;-75
2023/07/20 05:00:49;;;;;;;7.43;3.67;;;;;;;-140.66;100.00;55571.53;5117279;28;20114;-72
2023/07/20 05:03:35;;;;;;;6.43;3.47;;;;;;;-140.66;100.00;55571.53;5115640;28;20055;-73
2023/07/20 05:06:21;;;;;;;7.05;3.42;;;;;;;-140.66;100.00;55571.53;5116457;28;20043;-73
2023/07/20 05:09:07;;;;;;;7.88;3.40;;;;;;;-140.66;100.00;55571.53;5115301;28;20034;-74
2023/07/20 05:11:53;;;;;;;10.45;3.55;;;;;;;-140.66;100.00;55571.53;5116122;28;20024;-73
2023/07/20 05:14:39;;;;;;;9.27;3.63;;;;;;;-140.66;100.00;55571.53;5100865;28;20080;-74
2023/07/20 05:17:24;;;;;;;11.15;3.83;;;;;;;-140.66;100.00;55571.53;5101384;28;20031;-73
2023/07/20 05:20:12;;;;;;;7.70;3.80;;;;;;;-140.66;100.00;55571.53;5115429;28;20055;-74
2023/07/20 05:22:57;;;;;;;9.60;4.03;;;;;;;-140.66;100.00;55571.53;5115854;28;20108;-73
2023/07/20 05:25:43;;;;;;;8.00;4.25;;;;;;;-140.66;100.00;55571.53;5101083;28;20064;-74
2023/07/20 05:28:29;;;;;;;7.35;4.20;;;;;;;-140.66;100.00;55571.53;5116305;28;20023;-74
2023/07/20 05:31:15;;;;;;;12.07;4.38;;;;;;;-140.66;100.00;55571.53;5115967;28;20024;-74
2023/07/20 05:34:00;;;;;;;11.65;5.25;;;;;;;-140.66;100.00;55571.53;5116414;28;20426;-72
2023/07/20 05:36:46;;;;;;;13.15;4.78;;;;;;;-140.66;100.00;55571.53;5116815;28;20039;-74
2023/07/20 05:39:33;;;;;;;9.55;4.40;;;;;;;-140.66;100.00;55571.53;5116284;28;20050;-74
2023/07/20 05:42:18;;;;;;;11.75;4.13;;;;;;;-140.66;100.00;55571.53;5116858;28;20100;-74
2023/07/20 05:45:05;;;;;;;12.73;4.63;;;;;;;-140.66;100.00;55571.53;5101835;28;20119;-74
2023/07/20 05:47:50;;;;;;;12.30;4.85;;;;;;;-140.66;100.00;55571.53;5114527;28;20024;-73
2023/07/20 05:50:37;;;;;;;7.95;4.82;;;;;;;-140.66;100.00;55571.53;5100843;28;20023;-74
2023/07/20 05:53:23;;;;;;;11.13;4.75;;;;;;;-140.66;100.00;55571.53;5100351;28;20027;-74
2023/07/20 05:56:10;;;;;;;12.45;5.30;;;;;;;-140.66;100.00;55571.53;5100783;28;20034;-75
2023/07/20 05:58:55;;;;;;;10.85;5.15;;;;;;;-140.66;100.00;55571.53;5114759;28;20051;-74
2023/07/20 06:01:41;;;;;;;7.28;4.40;;;;;;;-140.66;100.00;55571.53;5101236;28;20019;-75
2023/07/20 06:04:27;;;;;;;8.15;4.55;;;;;;;-140.66;100.00;55571.53;5115044;28;20023;-74
2023/07/20 06:07:13;;;;;;;10.32;4.50;;;;;;;-140.66;100.00;55571.53;5115288;28;20088;-72
2023/07/20 06:09:59;;;;;;;9.75;4.80;;;;;;;-140.66;100.00;55571.53;5099434;28;20027;-73
2023/07/20 06:12:44;;;;;;;10.65;4.90;;;;;;;-140.66;100.00;55571.53;5115440;28;20035;-73
2023/07/20 06:15:38;;;;;;;11.65;5.00;;;;;;;-140.66;100.00;55571.53;5117953;28;20044;-73
2023/07/20 06:18:24;;;;;;;10.57;4.95;;;;;;;-140.66;100.00;55571.53;5119868;28;20027;-73
2023/07/20 06:21:10;;;;;;;10.18;4.95;;;;;;;-140.66;100.00;55571.53;5115538;28;20050;-74
2023/07/20 06:23:55;;;;;;;12.40;4.78;;;;;;;-140.66;100.00;55571.53;5116758;28;20053;-76
2023/07/20 06:26:41;;;;;;;11.02;4.97;;;;;;;-140.66;100.00;55571.53;5114086;28;20020;-74
2023/07/20 06:29:27;;;;;;;10.43;4.75;;;;;;;-140.66;100.00;55571.53;5115024;28;20020;-75
2023/07/20 06:32:13;;;;;;;10.48;5.28;;;;;;;-140.66;100.00;55571.53;5115896;28;20038;-74
2023/07/20 06:34:59;;;;;;;7.40;4.60;;;;;;;-140.66;100.00;55571.53;5123700;28;20047;-73
2023/07/20 06:37:45;;;;;;;10.55;5.30;;;;;;;-140.66;100.00;55571.53;5115243;28;20020;-74
2023/07/20 06:40:30;;;;;;;11.48;5.68;;;;;;;-140.66;100.00;55571.53;5115053;28;20038;-75
2023/07/20 06:43:16;;;;;;;6.95;4.55;;;;;;;-140.66;100.00;55571.53;5116668;28;20028;-75
2023/07/20 06:46:02;;;;;;;9.90;5.22;;;;;;;-140.66;100.00;55571.53;5115464;28;20027;-74
2023/07/20 06:48:48;;;;;;;10.45;4.60;;;;;;;-140.66;100.00;55571.53;5104946;28;20097;-73
2023/07/20 06:51:33;;;;;;;10.00;4.60;;;;;;;-140.66;100.00;55571.53;5118400;28;20020;-74
2023/07/20 06:54:19;;;;;;;9.40;4.22;;;;;;;-140.66;100.00;55571.53;5103128;28;20067;-74
2023/07/20 06:57:05;;;;;;;11.73;4.47;;;;;;;-140.66;100.00;55571.53;5105057;28;20059;-74
2023/07/20 06:59:51;;;;;;;7.10;4.10;;;;;;;-140.66;100.00;55571.53;5117308;28;20465;-74
2023/07/20 07:02:37;;;;;;;7.22;4.30;;;;;;;-140.66;100.00;55571.53;5118225;28;20036;-73
2023/07/20 07:05:23;;;;;;;8.23;4.03;;;;;;;-140.66;100.00;55571.53;5118476;28;20027;-74
2023/07/20 07:08:08;;;;;;;9.93;4.97;;;;;;;-140.66;100.00;55571.53;5118234;28;20111;-74
2023/07/20 07:10:54;;;;;;;8.02;4.50;;;;;;;-140.66;100.00;55571.53;5117075;28;20122;-73
2023/07/20 07:13:40;;;;;;;7.85;5.15;;;;;;;-140.66;100.00;55571.53;5120378;28;20035;-74
2023/07/20 07:16:26;;;;;;;10.40;4.97;;;;;;;-140.66;100.00;55571.53;5119645;28;20026;-73
2023/07/20 07:19:12;;;;;;;10.82;5.28;;;;;;;-140.66;100.00;55571.53;5120377;28;20092;-73
2023/07/20 07:21:57;;;;;;;8.15;5.68;;;;;;;-140.66;100.00;55571.53;5119342;28;20047;-72
2023/07/20 07:24:43;;;;;;;8.15;5.50;;;;;;;-140.66;100.00;55571.53;5119061;28;20032;-72
2023/07/20 07:27:29;;;;;;;8.65;5.18;;;;;;;-140.66;100.00;55571.53;5119402;28;20023;-72
2023/07/20 07:30:15;;;;;;;11.43;5.50;;;;;;;-140.66;100.00;55571.53;5119785;28;20023;-72
2023/07/20 07:33:00;;;;;;;8.73;5.70;;;;;;;-140.66;100.00;55571.53;5118200;28;20054;-72
2023/07/20 07:35:46;;;;;;;10.30;5.43;;;;;;;-140.66;100.00;55571.53;5118543;28;20103;-74
2023/07/20 07:38:32;;;;;;;8.25;5.43;;;;;;;-140.66;100.00;55571.53;5102265;28;20027;-74
2023/07/20 07:41:18;;;;;;;8.18;5.40;;;;;;;-140.66;100.00;55571.53;5117226;28;20069;-74
2023/07/20 07:44:04;;;;;;;10.73;5.32;;;;;;;-140.66;100.00;55571.53;5118097;28;20023;-73
2023/07/20 07:46:50;;;;;;;10.13;6.18;;;;;;;-140.66;100.00;55571.53;5117337;28;20059;-74
2023/07/20 07:49:36;;;;;;;7.85;5.10;;;;;;;-140.66;100.00;55571.53;5116820;28;20031;-75
2023/07/20 07:52:22;;;;;;;8.43;5.38;;;;;;;-140.66;100.00;55571.53;5118250;28;20123;-73
2023/07/20 07:55:07;;;;;;;12.10;5.40;;;;;;;-140.66;100.00;55571.53;5117260;28;20062;-74
2023/07/20 07:57:53;;;;;;;8.38;5.55;;;;;;;-140.66;100.00;55571.53;5116579;28;20059;-74
2023/07/20 08:00:39;;;;;;;8.70;5.60;;;;;;;-140.66;100.00;55571.53;5116717;28;20425;-74
2023/07/20 08:03:26;;;;;;;7.28;5.00;;;;;;;-140.66;100.00;55571.53;5102245;28;20099;-72
2023/07/20 08:06:11;;;;;;;9.85;5.32;;;;;;;-140.66;100.00;55571.53;5117154;28;20042;-74
2023/07/20 08:08:57;;;;;;;10.20;5.60;;;;;;;-140.66;100.00;55571.53;5116062;28;20385;-74
2023/07/20 08:11:43;;;;;;;11.23;6.60;;;;;;;-140.66;100.00;55571.53;5102203;28;20102;-74
2023/07/20 08:14:29;;;;;;;8.93;5.25;;;;;;;-140.66;100.00;55571.53;5115996;28;20024;-73
2023/07/20 08:17:14;;;;;;;7.20;5.10;;;;;;;-140.66;100.00;55571.53;5116752;28;20451;-75
2023/07/20 08:20:00;;;;;;;8.27;5.07;;;;;;;-140.66;100.00;55571.53;5101067;28;20486;-74
2023/07/20 08:22:46;;;;;;;8.32;5.18;;;;;;;-140.66;100.00;55571.53;5102387;28;20110;-74
2023/07/20 08:25:32;;;;;;;11.40;5.25;;;;;;;-140.66;100.00;55571.53;5116296;28;20054;-74
2023/07/20 08:28:17;;;;;;;10.43;5.53;;;;;;;-140.66;100.00;55571.53;5116842;28;20104;-75
2023/07/20 08:31:05;;;;;;;8.40;5.18;;;;;;;-140.66;100.00;55571.53;5116072;28;20035;-75
2023/07/20 08:33:51;;;;;;;8.93;5.45;;;;;;;-140.66;100.00;55571.53;5087496;28;20023;-73
2023/07/20 08:36:37;;;;;;;7.82;5.28;;;;;;;-140.66;100.00;55571.53;5116149;28;20020;-75
2023/07/20 08:39:23;;;;;;;6.53;4.90;;;;;;;-140.66;100.00;55571.53;5116472;28;20024;-74
2023/07/20 08:42:10;;;;;;;10.43;5.13;;;;;;;-140.66;100.00;55571.53;5116718;28;20031;-75
2023/07/20 08:44:57;;;;;;;6.65;4.88;;;;;;;-140.66;100.00;55571.53;5115461;28;20027;-76
2023/07/20 08:47:45;;;;;;;13.10;5.20;;;;;;;-140.66;100.00;55571.53;5117425;28;20039;-75
2023/07/20 08:50:31;;;;;;;9.07;5.00;;;;;;;-140.66;100.00;55571.53;5116868;28;20023;-75
2023/07/20 08:53:17;;;;;;;9.40;4.68;;;;;;;-140.66;100.00;55571.53;5116733;28;20092;-74
2023/07/20 08:56:04;;;;;;;10.15;5.20;;;;;;;-140.66;100.00;55571.53;5115652;28;20407;-73
2023/07/20 08:58:51;;;;;;;8.68;4.80;;;;;;;-140.66;100.00;55571.53;5115877;28;20550;-74
2023/07/20 09:01:39;;;;;;;7.25;4.85;;;;;;;-140.66;100.00;55571.53;5115167;28;20020;-74
2023/07/20 09:04:25;;;;;;;10.52;4.78;;;;;;;-140.66;100.00;55571.53;5116612;28;20023;-74
2023/07/20 09:07:12;;;;;;;9.02;4.43;;;;;;;-140.66;100.00;55571.53;5116906;28;20023;-74
2023/07/20 09:09:58;;;;;;;8.85;4.47;;;;;;;-140.66;100.00;55571.53;5115189;28;20038;-74
2023/07/20 09:12:44;;;;;;;9.85;4.25;;;;;;;-140.66;100.00;55571.53;5116021;28;20032;-74
2023/07/20 09:15:30;;;;;;;8.90;4.53;;;;;;;-140.66;100.00;55571.53;5115398;28;20019;-74
2023/07/20 09:18:26;;;;;;;10.88;4.70;;;;;;;-140.66;100.00;55571.53;5116268;28;20359;-74
2023/07/20 09:21:17;;;;;;;15.70;5.05;;;;;;;-140.66;100.00;55571.53;5100460;28;20052;-74
2023/07/20 09:24:03;;;;;;;10.18;4.40;;;;;;;-140.66;100.00;55571.53;5115763;28;20030;-74
2023/07/20 09:26:49;;;;;;;6.55;4.32;;;;;;;-140.66;100.00;55571.53;5113929;28;20098;-74
2023/07/20 09:29:48;;;;;;;7.63;3.83;;;;;;;-140.66;100.00;55571.53;5116056;28;20031;-74
2023/07/20 09:32:47;;;;;;;9.07;4.97;;;;;;;-140.66;100.00;55571.53;5114809;28;20027;-74
2023/07/20 09:35:33;;;;;;;12.73;4.80;;;;;;;-140.66;100.00;55571.53;5132139;27;20011;-72
2023/07/20 09:38:19;;;;;;;6.93;4.20;;;;;;;-140.66;100.00;55571.53;5122248;28;20085;-74
2023/07/20 09:41:06;;;;;;;8.57;4.63;;;;;;;-140.66;100.00;55571.53;5115351;28;20035;-74
2023/07/20 09:43:51;;;;;;;11.10;4.18;;;;;;;-140.66;100.00;55571.53;5114250;28;20028;-74
2023/07/20 09:46:45;;;;;;;7.82;4.45;;;;;;;-140.66;100.00;55571.53;5115670;28;20020;-74
2023/07/20 09:49:31;;;;;;;9.85;4.57;;;;;;;-140.66;100.00;55571.53;5100856;28;20036;-75
2023/07/20 09:52:17;;;;;;;12.77;4.03;;;;;;;-140.66;100.00;55571.53;5100110;28;20411;-74
2023/07/20 09:55:03;;;;;;;10.05;4.97;;;;;;;-140.66;100.00;55571.53;5132527;28;20018;-74
2023/07/20 09:57:49;;;;;;;8.25;4.60;;;;;;;-140.66;100.00;55571.53;5101889;28;20081;-74
2023/07/20 10:00:37;;;;;;;9.88;4.55;;;;;;;-140.66;100.00;55571.53;5113644;28;20089;-74
2023/07/20 10:03:29;;;;;;;14.30;4.78;;;;;;;-140.66;100.00;55571.53;5114271;28;20027;-74
2023/07/20 10:06:20;;;;;;;9.15;4.43;;;;;;;-140.66;100.00;55571.53;5115033;28;20128;-75
2023/07/20 10:09:09;;;;;;;13.65;4.93;;;;;;;-140.66;100.00;55571.53;5113677;28;20100;-75
2023/07/20 10:11:57;;;;;;;9.20;4.75;;;;;;;-140.66;100.00;55571.53;5114954;28;20027;-75
2023/07/20 10:15:02;;;;;;;8.57;4.78;;;;;;;-140.66;100.00;55571.53;5115366;28;20108;-75
2023/07/20 10:18:14;;;;;;;10.07;4.70;;;;;;;-140.66;100.00;55571.53;5115618;28;20023;-74
2023/07/20 10:21:00;;;;;;;8.85;4.35;;;;;;;-140.66;100.00;55571.53;5098951;28;20185;-74
2023/07/20 10:23:46;;;;;;;8.82;4.80;;;;;;;-140.66;100.00;55571.53;5114418;28;20023;-72
2023/07/20 10:26:32;;;;;;;10.38;4.85;;;;;;;-140.66;100.00;55571.53;5114639;28;20027;-73
2023/07/20 10:29:19;;;;;;;7.57;4.60;;;;;;;-140.66;100.00;55571.53;5113353;28;20023;-73
2023/07/20 10:32:05;;;;;;;10.43;4.40;;;;;;;-140.66;100.00;55571.53;5114444;28;20032;-73
2023/07/20 10:34:55;;;;;;;10.23;4.75;;;;;;;-140.66;100.00;55571.53;5114297;28;20171;-74
2023/07/20 10:37:52;;;;;;;11.55;4.40;;;;;;;-140.66;100.00;55571.53;5114155;28;20020;-73
2023/07/20 10:40:39;;;;;;;10.65;4.25;;;;;;;-140.66;100.00;55571.53;5114486;28;20051;-73
2023/07/20 10:43:25;;;;;;;5.03;4.15;;;;;;;-140.66;100.00;55571.53;5115393;28;20031;-73
2023/07/20 10:46:12;;;;;;;8.73;4.38;;;;;;;-140.66;100.00;55571.53;5114333;28;20038;-74
2023/07/20 10:49:06;;;;;;;10.07;4.47;;;;;;;-140.66;100.00;55571.53;5113457;28;20056;-75
2023/07/20 10:52:12;;;;;;;7.13;4.45;;;;;;;-140.66;100.00;55571.53;5114071;28;20106;-73
2023/07/20 10:55:11;;;;;;;14.30;4.50;;;;;;;-140.66;100.00;55571.53;5114302;28;20020;-76
2023/07/20 10:58:28;;;;;;;9.10;4.30;;;;;;;-140.66;100.00;55571.53;5098765;28;20034;-74
2023/07/20 11:01:17;;;;;;;8.32;4.10;;;;;;;-140.66;100.00;55571.53;5094226;28;20114;-73
2023/07/20 11:04:08;;;;;;;8.48;4.20;;;;;;;-140.66;100.00;55571.53;5100371;28;20031;-74
2023/07/20 11:06:56;;;;;;;9.25;4.40;;;;;;;-140.66;100.00;55571.53;5113900;28;20172;-74
2023/07/20 11:09:42;;;;;;;7.55;4.18;;;;;;;-140.66;100.00;55571.53;5114537;28;20036;-73
2023/07/20 11:12:28;;;;;;;9.10;4.10;;;;;;;-140.66;100.00;55571.53;5100063;28;20066;-74
2023/07/20 11:15:14;;;;;;;10.82;4.55;;;;;;;-140.66;100.00;55571.53;5114361;28;20027;-75
2023/07/20 11:18:12;;;;;;;15.38;4.80;;;;;;;-140.66;100.00;55571.53;5114240;28;20024;-73
2023/07/20 11:20:58;;;;;;;9.30;4.95;;;;;;;-140.66;100.00;55571.53;5112603;28;20051;-73
2023/07/20 11:23:45;;;;;;;7.20;4.40;;;;;;;-140.66;100.00;55571.53;5113806;28;20325;-73
2023/07/20 11:26:40;;;;;;;11.43;4.80;;;;;;;-140.66;100.00;55571.53;5115032;28;20024;-73
2023/07/20 11:29:26;;;;;;;11.95;5.53;;;;;;;-140.66;100.00;55571.53;5098718;28;20038;-73
2023/07/20 11:32:12;;;;;;;11.82;7.35;;;;;;;-140.66;100.00;55571.53;5114145;28;20036;-73
2023/07/20 11:34:59;;;;;;;15.50;7.20;;;;;;;-140.66;100.00;55571.53;5116865;28;20039;-73
2023/07/20 11:37:45;;;;;;;10.70;5.70;;;;;;;-140.66;100.00;55571.53;5116992;28;20100;-73
2023/07/20 11:40:30;;;;;;;10.18;4.90;;;;;;;-140.66;100.00;55571.53;5102871;28;20103;-73
2023/07/20 11:43:16;;;;;;;14.70;5.90;;;;;;;-140.66;100.00;55571.53;5117488;28;20345;-74
2023/07/20 11:46:05;;;;;;;13.23;7.07;;;;;;;-140.66;100.00;55571.53;5118184;28;20059;-74
2023/07/20 11:48:56;;;;;;;14.88;6.47;;;;;;;-140.66;100.00;55571.53;5117811;28;20027;-74
2023/07/20 11:51:42;;;;;;;13.35;5.28;;;;;;;-140.66;100.00;55571.53;5101247;28;20031;-75
2023/07/20 11:54:29;;;;;;;11.38;5.10;;;;;;;-140.66;100.00;55571.53;5117622;28;20038;-74
2023/07/20 11:57:20;;;;;;;8.23;4.78;;;;;;;-140.66;100.00;55571.53;5116044;28;20027;-74
2023/07/20 12:00:11;;;;;;;11.60;5.20;;;;;;;-140.66;100.00;55571.53;5116146;28;20046;-75
2023/07/20 12:02:57;;;;;;;15.85;5.53;;;;;;;-140.66;100.00;55571.53;5118109;28;20023;-75
2023/07/20 12:05:43;;;;;;;11.35;5.90;;;;;;;-140.66;100.00;55571.53;5117355;28;20019;-75
2023/07/20 12:08:29;;;;;;;12.80;5.20;;;;;;;-140.66;100.00;55571.53;5124388;28;20047;-75
2023/07/20 12:11:39;;;;;;;8.38;4.78;;;;;;;-140.66;100.00;55571.53;5130523;28;20020;-74
2023/07/20 12:14:25;;;;;;;7.75;4.43;;;;;;;-140.66;100.00;55571.53;5117912;28;20328;-74
2023/07/20 12:17:11;;;;;;;11.25;4.53;;;;;;;-140.66;100.00;55571.53;5117566;28;20054;-75
2023/07/20 12:19:58;;;;;;;12.00;4.80;;;;;;;-140.66;100.00;55571.53;5115244;28;20060;-75
2023/07/20 12:22:44;;;;;;;10.80;4.68;;;;;;;-140.66;100.00;55571.53;5118168;28;20444;-75
2023/07/20 12:25:45;;;;;;;10.30;4.50;;;;;;;-140.66;100.00;55571.53;5118029;28;20136;-75
2023/07/20 12:28:31;;;;;;;7.60;4.18;;;;;;;-140.66;100.00;55571.53;5131453;28;20091;-75
2023/07/20 12:31:17;;;;;;;9.00;3.97;;;;;;;-140.66;100.00;55571.53;5120751;28;20030;-75
2023/07/20 12:34:03;;;;;;;12.63;3.78;;;;;;;-140.66;100.00;55571.53;5117319;28;20019;-75
2023/07/20 12:36:49;;;;;;;9.65;3.85;;;;;;;-140.66;100.00;55571.53;5116901;28;20028;-75